createdAt,value
2023-05-05T00:00:26.966Z,20.60
2023-05-05T00:02:54.253Z,21.55
2023-05-05T00:05:21.838Z,24.15
2023-05-05T00:07:49.194Z,22.17
2023-05-05T00:10:16.750Z,22.40
2023-05-05T00:12:43.910Z,21.83
2023-05-05T00:15:11.081Z,18.67
2023-05-05T00:17:38.372Z,19.67
2023-05-05T00:20:06.580Z,20.02
2023-05-05T00:22:33.974Z,21.35
2023-05-05T00:25:01.159Z,19.90
2023-05-05T00:27:28.325Z,22.25
2023-05-05T00:29:55.633Z,21.92
2023-05-05T00:32:22.891Z,20.25
2023-05-05T00:34:50.044Z,19.63
2023-05-05T00:37:17.568Z,19.95
2023-05-05T00:39:45.454Z,20.48
2023-05-05T00:42:12.589Z,24.73
2023-05-05T00:44:42.841Z,20.80
2023-05-05T00:47:10.447Z,21.35
2023-05-05T00:49:38.221Z,21.13
2023-05-05T00:52:07.486Z,20.10
2023-05-05T00:54:36.229Z,20.45
2023-05-05T00:57:04.166Z,20.17
2023-05-05T00:59:33.408Z,20.17
2023-05-05T01:02:03.568Z,19.35
2023-05-05T01:04:30.726Z,19.10
2023-05-05T01:07:22.428Z,17.02
2023-05-05T01:10:18.237Z,18.25
2023-05-05T01:12:52.297Z,21.52
2023-05-05T01:15:44.385Z,16.55
2023-05-05T01:18:14.311Z,18.45
2023-05-05T01:20:55.645Z,21.67
2023-05-05T01:24:05.410Z,16.60
2023-05-05T01:26:55.927Z,17.98
2023-05-05T01:29:49.299Z,16.85
2023-05-05T01:32:24.565Z,17.98
2023-05-05T01:35:03.288Z,17.88
2023-05-05T01:37:55.900Z,18.15
2023-05-05T01:40:27.068Z,16.13
2023-05-05T01:42:56.558Z,16.83
2023-05-05T01:45:27.374Z,18.30
2023-05-05T01:47:56.595Z,16.00
2023-05-05T01:50:27.730Z,18.38
2023-05-05T01:52:56.758Z,17.65
2023-05-05T01:55:26.560Z,17.65
2023-05-05T01:57:56.349Z,17.98
2023-05-05T02:00:25.361Z,15.88
2023-05-05T02:02:55.105Z,18.38
2023-05-05T02:05:23.623Z,20.17
2023-05-05T02:07:58.313Z,17.52
2023-05-05T02:10:25.908Z,16.23
2023-05-05T02:12:54.142Z,17.55
2023-05-05T02:15:23.861Z,16.13
2023-05-05T02:17:54.874Z,16.05
2023-05-05T02:20:24.600Z,16.83
2023-05-05T02:22:51.677Z,17.73
2023-05-05T02:25:18.941Z,17.98
2023-05-05T02:27:46.952Z,17.75
2023-05-05T02:30:18.490Z,16.45
2023-05-05T02:32:53.677Z,19.48
2023-05-05T02:35:24.527Z,18.50
2023-05-05T02:37:56.426Z,17.63
2023-05-05T02:40:26.497Z,15.15
2023-05-05T02:42:56.546Z,16.65
2023-05-05T02:45:25.089Z,16.75
2023-05-05T02:47:52.273Z,15.23
2023-05-05T02:50:19.483Z,15.40
2023-05-05T02:52:47.221Z,18.08
2023-05-05T02:55:15.104Z,20.83
2023-05-05T02:58:06.841Z,17.50
2023-05-05T03:00:58.581Z,16.33
2023-05-05T03:03:33.802Z,17.80
2023-05-05T03:06:28.591Z,20.55
2023-05-05T03:09:16.097Z,20.17
2023-05-05T03:12:01.249Z,18.95
2023-05-05T03:14:32.811Z,17.88
2023-05-05T03:17:01.550Z,15.95
2023-05-05T03:19:29.703Z,18.10
2023-05-05T03:21:57.144Z,20.77
2023-05-05T03:24:24.416Z,17.30
2023-05-05T03:26:51.710Z,16.17
2023-05-05T03:29:18.961Z,16.27
2023-05-05T03:31:46.306Z,17.33
2023-05-05T03:34:13.831Z,18.17
2023-05-05T03:36:41.110Z,20.20
2023-05-05T03:39:08.514Z,15.43
2023-05-05T03:41:36.012Z,16.70
2023-05-05T03:44:03.485Z,15.55
2023-05-05T03:46:30.634Z,17.17
2023-05-05T03:48:57.750Z,17.67
2023-05-05T03:51:25.538Z,17.38
2023-05-05T03:53:52.645Z,15.95
2023-05-05T03:56:19.813Z,14.65
2023-05-05T03:58:46.934Z,16.83
2023-05-05T04:01:14.150Z,15.88
2023-05-05T04:03:41.482Z,14.77
2023-05-05T04:06:08.739Z,15.48
2023-05-05T04:08:36.354Z,12.70
2023-05-05T04:11:03.573Z,15.68
2023-05-05T04:13:30.691Z,14.77
2023-05-05T04:15:59.971Z,12.20
2023-05-05T04:18:27.188Z,12.20
2023-05-05T04:20:54.437Z,19.77
2023-05-05T04:23:21.605Z,14.75
2023-05-05T04:25:48.824Z,12.00
2023-05-05T04:28:16.101Z,14.15
2023-05-05T04:30:43.258Z,13.77
2023-05-05T04:33:10.340Z,14.85
2023-05-05T04:35:37.589Z,13.00
2023-05-05T04:38:04.903Z,14.63
2023-05-05T04:40:32.092Z,14.98
2023-05-05T04:42:59.759Z,12.88
2023-05-05T04:45:26.924Z,14.27
2023-05-05T04:47:54.262Z,12.50
2023-05-05T04:50:21.910Z,17.42
2023-05-05T04:52:50.254Z,16.52
2023-05-05T04:55:18.495Z,13.48
2023-05-05T04:57:45.587Z,14.63
2023-05-05T05:00:13.196Z,14.50
2023-05-05T05:02:40.469Z,15.07
2023-05-05T05:05:08.155Z,16.27
2023-05-05T05:07:35.278Z,14.85
2023-05-05T05:10:02.521Z,14.88
2023-05-05T05:12:29.915Z,17.02
2023-05-05T05:14:57.215Z,17.40
2023-05-05T05:17:25.145Z,13.55
2023-05-05T05:19:52.409Z,13.55
2023-05-05T05:22:19.604Z,18.30
2023-05-05T05:24:46.882Z,14.13
2023-05-05T05:27:14.112Z,17.23
2023-05-05T05:29:41.368Z,16.52
2023-05-05T05:32:08.717Z,12.32
2023-05-05T05:34:35.949Z,16.10
2023-05-05T05:37:03.090Z,10.48
2023-05-05T05:39:30.262Z,11.80
2023-05-05T05:41:57.540Z,13.30
2023-05-05T05:44:24.707Z,12.85
2023-05-05T05:46:51.762Z,16.70
2023-05-05T05:49:18.928Z,17.15
2023-05-05T05:51:46.028Z,20.67
2023-05-05T05:54:13.191Z,14.40
2023-05-05T05:56:40.368Z,15.35
2023-05-05T05:59:10.445Z,13.30
2023-05-05T06:01:38.149Z,11.13
2023-05-05T06:04:05.336Z,11.25
2023-05-05T06:06:32.533Z,11.75
2023-05-05T06:08:59.800Z,11.20
2023-05-05T06:11:27.091Z,9.55
2023-05-05T06:13:54.223Z,14.13
2023-05-05T06:16:21.362Z,11.80
2023-05-05T06:18:49.018Z,9.98
2023-05-05T06:21:16.406Z,9.75
2023-05-05T06:23:43.559Z,9.40
2023-05-05T06:26:10.978Z,9.70
2023-05-05T06:28:38.158Z,9.63
2023-05-05T06:31:05.283Z,9.60
2023-05-05T06:33:32.833Z,11.63
2023-05-05T06:35:59.943Z,11.48
2023-05-05T06:38:27.051Z,10.95
2023-05-05T06:40:54.175Z,10.63
2023-05-05T06:43:22.125Z,10.60
2023-05-05T06:45:49.340Z,9.35
2023-05-05T06:48:16.502Z,9.77
2023-05-05T06:50:43.681Z,8.18
2023-05-05T06:53:11.189Z,9.23
2023-05-05T06:55:38.330Z,8.40
2023-05-05T06:58:05.551Z,8.32
2023-05-05T07:00:32.761Z,10.40
2023-05-05T07:03:00.094Z,7.00
2023-05-05T07:05:27.251Z,7.47
2023-05-05T07:07:55.784Z,10.77
2023-05-05T07:10:24.249Z,8.32
2023-05-05T07:12:51.939Z,13.02
2023-05-05T07:15:27.686Z,8.85
2023-05-05T07:17:56.930Z,11.02
2023-05-05T07:20:24.688Z,9.55
2023-05-05T07:22:52.068Z,8.18
2023-05-05T07:25:19.255Z,11.85
2023-05-05T07:27:46.532Z,11.55
2023-05-05T07:30:16.521Z,11.63
2023-05-05T07:32:46.063Z,14.10
2023-05-05T07:35:13.640Z,10.18
2023-05-05T07:37:40.850Z,12.13
2023-05-05T07:40:09.047Z,10.23
2023-05-05T07:42:36.463Z,8.88
2023-05-05T07:45:04.855Z,8.48
2023-05-05T07:47:32.534Z,7.20
2023-05-05T07:50:01.023Z,8.40
2023-05-05T07:52:44.207Z,11.95
2023-05-05T07:55:15.490Z,9.50
2023-05-05T07:57:42.712Z,9.73
2023-05-05T08:00:11.027Z,8.18
2023-05-05T08:02:39.904Z,6.97
2023-05-05T08:05:08.306Z,7.68
2023-05-05T08:07:37.076Z,8.98
2023-05-05T08:10:04.482Z,6.45
2023-05-05T08:12:31.876Z,7.78
2023-05-05T08:14:59.134Z,8.23
2023-05-05T08:17:27.347Z,7.90
2023-05-05T08:19:54.959Z,8.40
2023-05-05T08:22:22.938Z,7.53
2023-05-05T08:24:50.120Z,10.73
2023-05-05T08:27:17.271Z,9.63
2023-05-05T08:29:44.560Z,8.18
2023-05-05T08:32:11.818Z,7.40
2023-05-05T08:34:39.225Z,7.53
2023-05-05T08:37:06.526Z,8.07
2023-05-05T08:39:33.840Z,11.68
2023-05-05T08:42:00.929Z,14.77
2023-05-05T08:44:29.063Z,8.27
2023-05-05T08:46:56.860Z,13.05
2023-05-05T08:49:25.179Z,8.90
2023-05-05T08:51:54.355Z,8.63
2023-05-05T08:54:27.428Z,11.00
2023-05-05T08:56:57.613Z,9.68
2023-05-05T08:59:25.417Z,9.75
2023-05-05T09:01:54.368Z,12.05
2023-05-05T09:04:21.880Z,9.20
2023-05-05T09:06:49.036Z,11.63
2023-05-05T09:09:17.259Z,10.75
2023-05-05T09:11:46.303Z,8.25
2023-05-05T09:14:13.412Z,13.27
2023-05-05T09:16:44.417Z,9.30
2023-05-05T09:19:11.672Z,8.97
2023-05-05T09:21:48.944Z,9.20
2023-05-05T09:24:16.358Z,7.65
2023-05-05T09:26:45.530Z,9.43
2023-05-05T09:29:23.454Z,12.52
2023-05-05T09:32:11.045Z,12.88
2023-05-05T09:34:38.737Z,11.13
2023-05-05T09:37:06.530Z,10.98
2023-05-05T09:39:33.808Z,9.05
2023-05-05T09:42:01.591Z,6.32
2023-05-05T09:44:40.945Z,6.63
2023-05-05T09:47:18.483Z,6.00
2023-05-05T09:49:59.716Z,6.47
2023-05-05T09:52:26.954Z,5.85
2023-05-05T09:54:58.236Z,7.65
2023-05-05T09:57:34.148Z,5.82
2023-05-05T10:00:02.659Z,5.65
2023-05-05T10:02:35.226Z,8.90
2023-05-05T10:05:07.838Z,8.70
2023-05-05T10:07:36.005Z,9.95
2023-05-05T10:10:08.752Z,6.53
2023-05-05T10:12:37.322Z,6.80
2023-05-05T10:15:05.760Z,5.10
2023-05-05T10:17:36.768Z,4.53
2023-05-05T10:20:05.043Z,5.30
2023-05-05T10:22:34.882Z,4.60
2023-05-05T10:25:11.554Z,5.22
2023-05-05T10:27:45.013Z,5.03
2023-05-05T10:30:33.052Z,4.15
2023-05-05T10:33:30.990Z,3.28
2023-05-05T10:36:01.826Z,5.15
2023-05-05T10:38:33.970Z,5.30
2023-05-05T10:41:05.382Z,4.60
2023-05-05T10:43:32.885Z,5.30
2023-05-05T10:46:00.901Z,6.63
2023-05-05T10:48:40.758Z,4.25
2023-05-05T10:51:43.615Z,3.92
2023-05-05T10:54:23.389Z,4.30
2023-05-05T10:56:51.468Z,5.75
2023-05-05T10:59:39.410Z,5.68
2023-05-05T11:02:29.618Z,6.10
2023-05-05T11:05:22.849Z,5.50
2023-05-05T11:07:51.804Z,8.52
2023-05-05T11:10:20.867Z,5.13
2023-05-05T11:13:05.872Z,5.88
2023-05-05T11:15:38.143Z,3.90
2023-05-05T11:20:41.183Z,3.47
2023-05-05T11:23:08.326Z,3.88
2023-05-05T11:25:35.889Z,4.60
2023-05-05T11:28:17.845Z,4.10
2023-05-05T11:30:58.146Z,6.28
2023-05-05T11:33:36.184Z,4.57
2023-05-05T11:36:17.172Z,6.60
2023-05-05T11:39:10.110Z,6.47
2023-05-05T11:42:32.352Z,3.63
2023-05-05T11:44:59.925Z,4.85
2023-05-05T11:47:28.572Z,5.45
2023-05-05T11:49:56.299Z,4.47
2023-05-05T11:52:25.779Z,5.63
2023-05-05T11:54:52.954Z,5.47
2023-05-05T11:57:28.264Z,5.85
2023-05-05T11:59:58.131Z,5.95
2023-05-05T12:02:27.964Z,5.13
2023-05-05T12:04:56.350Z,6.28
2023-05-05T12:07:28.432Z,5.03
2023-05-05T12:09:56.217Z,7.55
2023-05-05T12:12:35.821Z,5.32
2023-05-05T12:15:04.063Z,8.43
2023-05-05T12:17:42.923Z,5.07
2023-05-05T12:20:12.323Z,5.15
2023-05-05T12:22:40.112Z,14.38
2023-05-05T12:25:08.913Z,11.20
2023-05-05T12:27:36.244Z,8.10
2023-05-05T12:30:18.077Z,7.75
2023-05-05T12:32:46.085Z,4.63
2023-05-05T12:35:14.176Z,6.93
2023-05-05T12:37:42.519Z,6.82
2023-05-05T12:41:01.926Z,5.25
2023-05-05T12:43:34.544Z,8.52
2023-05-05T12:46:07.546Z,10.88
2023-05-05T12:48:36.033Z,5.43
2023-05-05T12:51:20.766Z,7.72
2023-05-05T12:53:49.972Z,4.65
2023-05-05T12:56:52.427Z,5.55
2023-05-05T12:59:22.165Z,7.32
2023-05-05T13:01:56.734Z,5.78
2023-05-05T13:04:28.110Z,7.45
2023-05-05T13:07:15.357Z,7.13
2023-05-05T13:09:43.323Z,7.03
2023-05-05T13:12:13.389Z,5.93
2023-05-05T13:14:41.169Z,5.38
2023-05-05T13:17:08.853Z,5.95
2023-05-05T13:19:41.914Z,6.90
2023-05-05T13:22:13.260Z,7.85
2023-05-05T13:24:50.618Z,9.35
2023-05-05T13:27:19.359Z,4.70
2023-05-05T13:29:46.874Z,5.75
2023-05-05T13:32:14.476Z,6.88
2023-05-05T13:34:42.756Z,6.63
2023-05-05T13:37:09.919Z,5.03
2023-05-05T13:39:37.129Z,5.50
2023-05-05T13:42:04.509Z,5.47
2023-05-05T13:44:31.603Z,5.97
2023-05-05T13:46:58.846Z,8.60
2023-05-05T13:49:26.092Z,8.02
2023-05-05T13:51:53.192Z,7.32
2023-05-05T13:54:20.336Z,6.80
2023-05-05T13:56:47.555Z,5.53
2023-05-05T13:59:14.748Z,5.28
2023-05-05T14:01:41.963Z,7.03
2023-05-05T14:04:09.275Z,5.70
2023-05-05T14:06:36.600Z,8.10
2023-05-05T14:09:06.099Z,5.75
2023-05-05T14:11:33.629Z,6.13
2023-05-05T14:14:00.899Z,4.60
2023-05-05T14:16:28.061Z,6.07
2023-05-05T14:18:55.172Z,5.25
2023-05-05T14:21:24.142Z,9.40
2023-05-05T14:23:51.387Z,4.00
2023-05-05T14:26:18.674Z,7.32
2023-05-05T14:28:49.007Z,6.18
2023-05-05T14:31:17.833Z,5.18
2023-05-05T14:33:45.100Z,4.28
2023-05-05T14:36:12.292Z,7.93
2023-05-05T14:38:39.637Z,6.50
2023-05-05T14:41:06.866Z,4.15
2023-05-05T14:43:34.135Z,5.57
2023-05-05T14:46:06.863Z,5.43
2023-05-05T14:48:34.739Z,5.63
2023-05-05T14:51:02.062Z,4.70
2023-05-05T14:53:29.242Z,4.88
2023-05-05T14:55:56.538Z,6.43
2023-05-05T14:58:24.876Z,7.28
2023-05-05T15:00:53.133Z,11.05
2023-05-05T15:03:21.019Z,6.30
2023-05-05T15:05:48.327Z,6.57
2023-05-05T15:08:18.923Z,5.90
2023-05-05T15:10:46.812Z,6.53
2023-05-05T15:13:16.938Z,4.03
2023-05-05T15:15:45.328Z,4.07
2023-05-05T15:18:12.534Z,6.43
2023-05-05T15:20:39.768Z,3.90
2023-05-05T15:23:07.380Z,7.82
2023-05-05T15:25:35.165Z,9.20
2023-05-05T15:28:02.405Z,5.30
2023-05-05T15:30:30.544Z,4.93
2023-05-05T15:32:57.822Z,6.78
2023-05-05T15:35:25.938Z,7.00
2023-05-05T15:37:54.411Z,6.38
2023-05-05T15:40:21.812Z,8.75
2023-05-05T15:42:49.963Z,7.80
2023-05-05T15:45:18.006Z,6.38
2023-05-05T15:47:46.142Z,4.90
2023-05-05T15:50:13.557Z,5.32
2023-05-05T15:52:40.893Z,5.45
2023-05-05T15:55:09.516Z,7.00
2023-05-05T15:57:39.773Z,7.65
2023-05-05T16:00:08.934Z,6.75
2023-05-05T16:02:36.487Z,5.90
2023-05-05T16:05:04.917Z,10.65
2023-05-05T16:07:32.186Z,7.43
2023-05-05T16:09:59.348Z,6.57
2023-05-05T16:12:26.490Z,6.47
2023-05-05T16:14:53.646Z,7.28
2023-05-05T16:17:22.376Z,6.07
2023-05-05T16:19:50.062Z,7.75
2023-05-05T16:22:17.280Z,8.20
2023-05-05T16:24:44.513Z,5.35
2023-05-05T16:27:11.828Z,5.95
2023-05-05T16:29:39.132Z,6.55
2023-05-05T16:32:06.373Z,6.93
2023-05-05T16:34:33.486Z,6.93
2023-05-05T16:37:01.034Z,7.40
2023-05-05T16:39:28.414Z,8.75
2023-05-05T16:41:55.895Z,8.55
2023-05-05T16:44:23.378Z,11.50
2023-05-05T16:46:50.646Z,6.63
2023-05-05T16:49:18.547Z,10.40
2023-05-05T16:51:45.683Z,10.07
2023-05-05T16:54:12.877Z,7.30
2023-05-05T16:56:39.914Z,7.70
2023-05-05T16:59:07.246Z,8.27
2023-05-05T17:01:35.097Z,6.78
2023-05-05T17:04:02.675Z,5.93
2023-05-05T17:06:33.120Z,5.45
2023-05-05T17:09:00.486Z,6.05
2023-05-05T17:11:27.656Z,5.70
2023-05-05T17:13:54.868Z,6.63
2023-05-05T17:16:22.146Z,7.20
2023-05-05T17:18:49.433Z,6.57
2023-05-05T17:21:16.613Z,7.10
2023-05-05T17:23:44.542Z,7.63
2023-05-05T17:26:11.821Z,7.15
2023-05-05T17:28:38.948Z,5.45
2023-05-05T17:31:06.317Z,6.97
2023-05-05T17:33:35.931Z,6.93
2023-05-05T17:36:05.668Z,5.00
2023-05-05T17:38:36.528Z,9.07
2023-05-05T17:41:06.342Z,8.50
2023-05-05T17:43:34.337Z,6.85
2023-05-05T17:46:01.726Z,8.88
2023-05-05T17:48:31.630Z,7.97
2023-05-05T17:51:01.168Z,8.18
2023-05-05T17:53:31.207Z,7.65
2023-05-05T17:55:58.789Z,9.10
2023-05-05T17:58:28.862Z,8.57
2023-05-05T18:00:58.648Z,8.32
2023-05-05T18:03:28.384Z,8.98
2023-05-05T18:05:58.370Z,7.40
2023-05-05T18:08:28.605Z,7.65
2023-05-05T18:10:58.744Z,9.35
2023-05-05T18:13:29.317Z,7.38
2023-05-05T18:15:59.903Z,10.50
2023-05-05T18:18:30.010Z,8.80
2023-05-05T18:21:00.415Z,13.70
2023-05-05T18:23:29.888Z,19.08
2023-05-05T18:25:58.809Z,22.10
2023-05-05T18:28:29.080Z,23.05
2023-05-05T18:30:59.273Z,20.95
2023-05-05T18:33:30.064Z,20.10
2023-05-05T18:35:59.885Z,18.52
2023-05-05T18:38:27.174Z,16.13
2023-05-05T18:40:54.454Z,15.90
2023-05-05T18:43:21.575Z,14.95
2023-05-05T18:45:48.733Z,12.45
2023-05-05T18:48:16.575Z,15.05
2023-05-05T18:50:43.664Z,16.17
2023-05-05T18:53:13.703Z,15.52
2023-05-05T18:55:42.950Z,11.85
2023-05-05T18:58:10.296Z,12.13
2023-05-05T19:00:37.571Z,14.80
2023-05-05T19:03:04.740Z,13.38
2023-05-05T19:05:31.971Z,16.70
2023-05-05T19:07:59.072Z,11.93
2023-05-05T19:10:26.440Z,13.50
2023-05-05T19:12:55.699Z,14.45
2023-05-05T19:15:23.088Z,11.30
2023-05-05T19:17:50.408Z,12.20
2023-05-05T19:20:17.580Z,11.75
2023-05-05T19:22:44.758Z,12.80
2023-05-05T19:25:14.502Z,16.65
2023-05-05T19:27:42.021Z,15.15
2023-05-05T19:30:09.951Z,17.20
2023-05-05T19:32:37.138Z,15.68
2023-05-05T19:35:07.027Z,13.00
2023-05-05T19:37:34.324Z,16.40
2023-05-05T19:40:02.867Z,19.55
2023-05-05T19:42:30.094Z,14.13
2023-05-05T19:44:57.403Z,15.65
2023-05-05T19:47:24.699Z,15.15
2023-05-05T19:49:51.839Z,16.05
2023-05-05T19:52:19.068Z,14.27
2023-05-05T19:54:46.240Z,17.25
2023-05-05T19:57:13.438Z,18.05
2023-05-05T19:59:42.029Z,13.82
2023-05-05T20:02:10.345Z,15.65
2023-05-05T20:04:37.518Z,14.35
2023-05-05T20:07:04.834Z,13.88
2023-05-05T20:09:36.310Z,14.13
2023-05-05T20:12:10.368Z,15.53
2023-05-05T20:14:44.657Z,15.88
2023-05-05T20:17:18.225Z,15.73
2023-05-05T20:19:51.341Z,16.20
2023-05-05T20:22:19.202Z,17.73
2023-05-05T20:24:47.593Z,14.13
2023-05-05T20:27:16.348Z,12.90
2023-05-05T20:29:43.750Z,12.77
2023-05-05T20:32:16.244Z,13.23
2023-05-05T20:37:35.011Z,15.05
2023-05-05T20:40:05.366Z,16.25
2023-05-05T20:42:32.720Z,13.98
2023-05-05T20:45:01.532Z,14.68
2023-05-05T20:47:28.849Z,16.80
2023-05-05T20:49:56.329Z,16.10
2023-05-05T20:52:28.237Z,18.75
2023-05-05T20:54:59.251Z,16.88
2023-05-05T20:57:28.066Z,16.20
2023-05-05T20:59:55.534Z,15.93
2023-05-05T21:02:23.082Z,25.38
2023-05-05T21:04:51.200Z,20.55
2023-05-05T21:07:28.893Z,17.13
2023-05-05T21:09:56.194Z,17.27
2023-05-05T21:12:23.367Z,16.77
2023-05-05T21:14:51.089Z,16.20
2023-05-05T21:17:19.092Z,17.83
2023-05-05T21:19:46.454Z,14.32
2023-05-05T21:22:14.397Z,14.45
2023-05-05T21:24:41.563Z,15.82
2023-05-05T21:27:08.714Z,17.58
2023-05-05T21:29:37.969Z,15.60
2023-05-05T21:32:07.631Z,14.57
2023-05-05T21:34:35.346Z,17.73
2023-05-05T21:37:03.379Z,15.20
2023-05-05T21:39:33.112Z,18.55
2023-05-05T21:42:01.516Z,17.30
2023-05-05T21:44:29.204Z,18.30
2023-05-05T21:46:56.585Z,18.40
2023-05-05T21:49:24.153Z,17.80
2023-05-05T21:51:52.024Z,15.88
2023-05-05T21:54:19.209Z,17.63
2023-05-05T21:56:46.271Z,18.25
2023-05-05T21:59:15.230Z,21.25
2023-05-05T22:01:43.213Z,17.02
2023-05-05T22:04:10.483Z,20.17
2023-05-05T22:06:37.682Z,16.98
2023-05-05T22:09:04.789Z,15.90
2023-05-05T22:11:31.937Z,20.13
2023-05-05T22:13:59.048Z,21.05
2023-05-05T22:16:26.199Z,19.30
2023-05-05T22:18:53.475Z,19.35
2023-05-05T22:21:22.184Z,16.70
2023-05-05T22:23:49.368Z,18.00
2023-05-05T22:26:16.454Z,16.45
2023-05-05T22:28:43.655Z,16.38
2023-05-05T22:31:11.117Z,19.23
2023-05-05T22:33:38.295Z,18.42
2023-05-05T22:36:05.747Z,18.30
2023-05-05T22:38:32.864Z,17.42
2023-05-05T22:40:59.968Z,18.17
2023-05-05T22:43:27.124Z,16.70
2023-05-05T22:45:54.295Z,16.58
2023-05-05T22:48:21.816Z,19.17
2023-05-05T22:50:48.909Z,15.15
2023-05-05T22:53:16.136Z,17.70
2023-05-05T22:55:43.402Z,16.85
2023-05-05T22:58:10.567Z,18.08
2023-05-05T23:00:37.823Z,21.83
2023-05-05T23:03:05.140Z,17.50
2023-05-05T23:05:32.331Z,21.58
2023-05-05T23:08:01.590Z,20.52
2023-05-05T23:10:30.194Z,19.58
2023-05-05T23:12:57.350Z,19.88
2023-05-05T23:15:25.101Z,22.63
2023-05-05T23:17:52.412Z,26.88
2023-05-05T23:20:19.720Z,20.45
2023-05-05T23:22:46.907Z,20.67
2023-05-05T23:25:14.117Z,21.10
2023-05-05T23:27:41.462Z,19.45
2023-05-05T23:30:09.776Z,21.67
2023-05-05T23:32:37.080Z,19.67
2023-05-05T23:35:04.515Z,19.25
2023-05-05T23:37:31.750Z,20.15
2023-05-05T23:39:58.879Z,18.33
2023-05-05T23:42:25.978Z,20.05
2023-05-05T23:44:53.237Z,20.98
2023-05-05T23:47:20.414Z,23.58
2023-05-05T23:49:47.546Z,21.25
2023-05-05T23:52:14.770Z,21.52
2023-05-05T23:54:42.222Z,20.60
2023-05-05T23:57:09.613Z,21.40
2023-05-05T23:59:36.753Z,19.10
